createdAt,value
2017-12-15T00:02:14.217Z,5.00
2017-12-15T00:04:42.621Z,4.90
2017-12-15T00:07:10.227Z,4.80
2017-12-15T00:09:37.775Z,4.90
2017-12-15T00:12:05.379Z,4.90
2017-12-15T00:14:32.976Z,4.80
2017-12-15T00:17:00.578Z,4.90
2017-12-15T00:19:28.130Z,4.90
2017-12-15T00:21:55.691Z,4.80
2017-12-15T00:24:23.299Z,4.80
2017-12-15T00:26:50.879Z,4.90
2017-12-15T00:29:18.509Z,4.80
2017-12-15T00:31:46.176Z,4.90
2017-12-15T00:34:13.759Z,4.90
2017-12-15T00:36:41.314Z,4.90
2017-12-15T00:39:08.915Z,4.90
2017-12-15T00:41:37.329Z,4.90
2017-12-15T00:44:04.912Z,4.90
2017-12-15T00:46:32.503Z,4.90
2017-12-15T00:49:00.064Z,4.90
2017-12-15T00:51:28.483Z,4.90
2017-12-15T00:53:56.106Z,4.90
2017-12-15T00:56:24.583Z,5.00
2017-12-15T00:58:52.908Z,4.90
2017-12-15T01:01:20.483Z,4.90
2017-12-15T01:03:48.068Z,5.00
2017-12-15T01:06:15.732Z,4.90
2017-12-15T01:08:43.327Z,5.00
2017-12-15T01:11:10.891Z,5.00
2017-12-15T01:13:38.448Z,4.90
2017-12-15T01:16:06.033Z,4.90
2017-12-15T01:18:33.606Z,4.90
2017-12-15T01:21:01.971Z,5.00
2017-12-15T01:23:29.536Z,5.00
2017-12-15T01:25:57.163Z,4.90
2017-12-15T01:28:24.786Z,5.00
2017-12-15T01:30:53.140Z,4.90
2017-12-15T01:33:20.715Z,4.90
2017-12-15T01:35:49.239Z,4.80
2017-12-15T01:38:16.823Z,4.70
2017-12-15T01:40:44.374Z,4.70
2017-12-15T01:43:12.014Z,4.60
2017-12-15T01:45:39.586Z,4.60
2017-12-15T01:48:07.150Z,4.50
2017-12-15T01:50:36.365Z,4.40
2017-12-15T01:53:04.047Z,4.40
2017-12-15T01:55:32.371Z,4.30
2017-12-15T01:57:59.923Z,4.30
2017-12-15T02:00:27.516Z,4.20
2017-12-15T02:02:55.066Z,4.20
2017-12-15T02:05:22.643Z,4.20
2017-12-15T02:07:50.262Z,4.20
2017-12-15T02:10:17.867Z,4.20
2017-12-15T02:12:46.298Z,4.10
2017-12-15T02:15:14.109Z,4.00
2017-12-15T02:17:41.707Z,4.10
2017-12-15T02:20:09.263Z,4.20
2017-12-15T02:22:36.854Z,4.10
2017-12-15T02:25:04.527Z,4.10
2017-12-15T02:27:32.107Z,4.00
2017-12-15T02:29:59.716Z,3.40
2017-12-15T02:32:27.267Z,3.20
2017-12-15T02:34:54.937Z,3.20
2017-12-15T02:37:22.597Z,3.20
2017-12-15T02:39:50.175Z,3.30
2017-12-15T02:42:17.727Z,3.30
2017-12-15T02:44:45.428Z,3.20
2017-12-15T02:47:13.016Z,3.20
2017-12-15T02:49:40.714Z,3.10
2017-12-15T02:52:08.346Z,2.90
2017-12-15T02:54:35.890Z,2.90
2017-12-15T02:57:03.447Z,2.80
2017-12-15T02:59:31.847Z,2.70
2017-12-15T03:01:59.571Z,2.70
2017-12-15T03:04:27.884Z,2.80
2017-12-15T03:06:55.465Z,2.80
2017-12-15T03:09:23.062Z,2.80
2017-12-15T03:11:51.586Z,3.00
2017-12-15T03:14:19.246Z,2.90
2017-12-15T03:16:46.835Z,3.10
2017-12-15T03:19:14.387Z,3.10
2017-12-15T03:21:41.987Z,3.00
2017-12-15T03:24:10.298Z,3.00
2017-12-15T03:26:37.859Z,3.00
2017-12-15T03:29:05.447Z,3.00
2017-12-15T03:31:33.003Z,3.00
2017-12-15T03:34:00.628Z,2.90
2017-12-15T03:36:28.174Z,2.90
2017-12-15T03:38:55.731Z,2.70
2017-12-15T03:41:23.310Z,2.50
2017-12-15T03:43:50.967Z,2.70
2017-12-15T03:46:18.562Z,2.60
2017-12-15T03:48:46.126Z,2.70
2017-12-15T03:51:13.694Z,2.70
2017-12-15T03:53:41.274Z,2.70
2017-12-15T03:56:09.610Z,2.70
2017-12-15T03:58:37.222Z,2.70
2017-12-15T04:01:04.774Z,2.70
2017-12-15T04:03:32.414Z,2.70
2017-12-15T04:06:00.821Z,2.90
2017-12-15T04:08:28.555Z,2.90
2017-12-15T04:10:56.939Z,3.00
2017-12-15T04:13:25.296Z,3.00
2017-12-15T04:15:52.908Z,2.90
2017-12-15T04:18:20.499Z,2.90
2017-12-15T04:20:48.055Z,3.00
2017-12-15T04:23:15.682Z,3.00
2017-12-15T04:25:43.227Z,3.00
2017-12-15T04:28:10.787Z,3.10
2017-12-15T04:30:38.391Z,3.10
2017-12-15T04:33:05.941Z,3.10
2017-12-15T04:35:33.989Z,3.20
2017-12-15T04:38:01.562Z,3.10
2017-12-15T04:40:29.151Z,3.10
2017-12-15T04:42:58.302Z,2.90
2017-12-15T04:45:25.851Z,2.90
2017-12-15T04:47:53.459Z,3.00
2017-12-15T04:50:21.071Z,2.90
2017-12-15T04:52:48.674Z,2.90
2017-12-15T04:55:16.227Z,2.80
2017-12-15T04:57:43.855Z,2.80
2017-12-15T05:00:11.432Z,2.80
2017-12-15T05:02:39.014Z,2.80
2017-12-15T05:05:06.607Z,2.80
2017-12-15T05:07:35.010Z,2.60
2017-12-15T05:10:02.583Z,2.60
2017-12-15T05:12:30.134Z,2.60
2017-12-15T05:14:57.731Z,2.50
2017-12-15T05:17:26.080Z,2.30
2017-12-15T05:19:53.640Z,2.30
2017-12-15T05:22:21.307Z,2.30
2017-12-15T05:24:48.858Z,2.20
2017-12-15T05:27:16.415Z,2.20
2017-12-15T05:29:44.004Z,2.20
2017-12-15T05:32:11.567Z,2.10
2017-12-15T05:34:39.172Z,2.30
2017-12-15T05:37:06.722Z,2.50
2017-12-15T05:39:34.311Z,2.30
2017-12-15T05:42:01.862Z,2.40
2017-12-15T05:44:29.483Z,2.30
2017-12-15T05:46:57.779Z,2.50
2017-12-15T05:49:25.366Z,2.50
2017-12-15T05:51:53.108Z,2.60
2017-12-15T05:54:20.656Z,2.50
2017-12-15T05:56:48.268Z,2.60
2017-12-15T05:59:15.827Z,2.80
2017-12-15T06:01:43.410Z,2.70
2017-12-15T06:04:11.775Z,3.00
2017-12-15T06:06:40.103Z,3.20
2017-12-15T06:09:07.691Z,3.20
2017-12-15T06:11:35.283Z,3.40
2017-12-15T06:14:02.867Z,3.40
2017-12-15T06:16:30.474Z,3.40
2017-12-15T06:18:58.095Z,3.50
2017-12-15T06:21:25.681Z,3.40
2017-12-15T06:23:53.244Z,3.40
2017-12-15T06:26:20.847Z,3.50
2017-12-15T06:28:48.480Z,3.40
2017-12-15T06:31:16.035Z,3.40
2017-12-15T06:33:43.648Z,3.50
2017-12-15T06:36:11.230Z,3.50
2017-12-15T06:38:38.824Z,3.40
2017-12-15T06:41:07.148Z,3.40
2017-12-15T06:43:34.738Z,3.40
2017-12-15T06:46:02.366Z,3.40
2017-12-15T06:48:29.922Z,3.40
2017-12-15T06:50:57.635Z,3.40
2017-12-15T06:53:25.990Z,3.40
2017-12-15T06:55:53.543Z,3.40
2017-12-15T06:58:21.130Z,3.30
2017-12-15T07:00:49.466Z,3.40
2017-12-15T07:03:17.052Z,3.40
2017-12-15T07:05:44.643Z,3.40
2017-12-15T07:08:12.235Z,3.40
2017-12-15T07:10:39.797Z,3.50
2017-12-15T07:13:07.411Z,3.50
2017-12-15T07:15:35.816Z,3.60
2017-12-15T07:18:03.378Z,3.60
2017-12-15T07:20:30.963Z,3.60
2017-12-15T07:22:58.552Z,3.60
2017-12-15T07:25:26.918Z,3.60
2017-12-15T07:27:54.478Z,3.60
2017-12-15T07:30:22.072Z,3.70
2017-12-15T07:32:49.658Z,3.70
2017-12-15T07:35:17.222Z,3.80
2017-12-15T07:37:44.866Z,3.80
2017-12-15T07:40:12.415Z,3.80
2017-12-15T07:42:39.976Z,3.80
2017-12-15T07:45:07.806Z,3.80
2017-12-15T07:47:36.128Z,3.90
2017-12-15T07:50:03.808Z,3.80
2017-12-15T07:52:31.380Z,3.80
2017-12-15T07:54:58.967Z,3.80
2017-12-15T07:57:27.441Z,3.90
2017-12-15T07:59:56.166Z,3.90
2017-12-15T08:02:23.920Z,3.90
2017-12-15T08:04:51.506Z,3.90
2017-12-15T08:07:19.073Z,3.90
2017-12-15T08:09:46.810Z,3.90
2017-12-15T08:12:14.490Z,4.00
2017-12-15T08:14:42.075Z,4.00
2017-12-15T08:17:09.635Z,4.00
2017-12-15T08:19:37.230Z,4.00
2017-12-15T08:22:04.912Z,4.00
2017-12-15T08:24:32.493Z,4.00
2017-12-15T08:27:00.106Z,4.00
2017-12-15T08:29:27.671Z,4.00
2017-12-15T08:31:55.259Z,4.10
2017-12-15T08:34:23.000Z,4.10
2017-12-15T08:36:50.569Z,4.10
2017-12-15T08:39:18.151Z,4.00
2017-12-15T08:41:45.715Z,4.10
2017-12-15T08:44:13.308Z,4.10
2017-12-15T08:46:41.631Z,4.20
2017-12-15T08:49:09.212Z,4.10
2017-12-15T08:51:36.933Z,4.20
2017-12-15T08:54:04.580Z,4.30
2017-12-15T08:56:32.179Z,4.30
2017-12-15T08:58:59.803Z,4.30
2017-12-15T09:01:27.403Z,4.30
2017-12-15T09:04:00.631Z,4.30
2017-12-15T09:06:28.964Z,4.40
2017-12-15T09:08:56.559Z,4.40
2017-12-15T09:11:24.982Z,4.60
2017-12-15T09:13:52.571Z,4.60
2017-12-15T09:16:20.114Z,4.60
2017-12-15T09:18:47.695Z,4.70
2017-12-15T09:21:15.375Z,4.80
2017-12-15T09:23:43.699Z,4.70
2017-12-15T09:26:11.349Z,4.70
2017-12-15T09:28:38.933Z,4.70
2017-12-15T09:31:06.544Z,4.90
2017-12-15T09:33:34.104Z,4.90
2017-12-15T09:36:02.503Z,5.30
2017-12-15T09:38:30.099Z,5.20
2017-12-15T09:40:57.655Z,5.30
2017-12-15T09:43:25.303Z,5.50
2017-12-15T09:45:52.868Z,5.50
2017-12-15T09:48:20.447Z,5.50
2017-12-15T09:50:48.775Z,6.30
2017-12-15T09:53:16.332Z,6.30
2017-12-15T09:55:44.400Z,5.90
2017-12-15T09:58:12.030Z,5.60
2017-12-15T10:00:40.358Z,5.30
2017-12-15T10:03:07.922Z,5.20
2017-12-15T10:05:35.507Z,5.30
2017-12-15T10:08:03.071Z,5.50
2017-12-15T10:10:30.648Z,5.70
2017-12-15T10:12:58.992Z,5.70
2017-12-15T10:15:26.720Z,5.70
2017-12-15T10:17:54.283Z,5.80
2017-12-15T10:20:21.883Z,5.70
2017-12-15T10:22:49.462Z,5.50
2017-12-15T10:25:17.875Z,5.40
2017-12-15T10:27:45.475Z,5.40
2017-12-15T10:30:13.144Z,5.50
2017-12-15T10:32:41.566Z,5.50
2017-12-15T10:35:09.225Z,5.50
2017-12-15T10:37:36.938Z,5.60
2017-12-15T10:40:04.524Z,5.60
2017-12-15T10:42:32.851Z,5.70
2017-12-15T10:45:00.482Z,5.70
2017-12-15T10:47:28.036Z,5.80
2017-12-15T10:49:55.636Z,5.60
2017-12-15T10:52:23.262Z,5.60
2017-12-15T10:54:50.822Z,5.60
2017-12-15T10:57:18.479Z,5.60
2017-12-15T10:59:46.155Z,5.60
2017-12-15T11:02:13.798Z,5.60
2017-12-15T11:04:41.346Z,5.60
2017-12-15T11:07:08.945Z,5.60
2017-12-15T11:09:36.503Z,5.80
2017-12-15T11:12:04.061Z,5.80
2017-12-15T11:14:31.666Z,6.00
2017-12-15T11:17:00.037Z,6.40
2017-12-15T11:19:28.366Z,6.50
2017-12-15T11:21:56.024Z,6.40
2017-12-15T11:24:23.668Z,6.40
2017-12-15T11:26:51.265Z,6.20
2017-12-15T11:29:18.815Z,6.10
2017-12-15T11:31:46.364Z,6.10
2017-12-15T11:34:13.959Z,6.20
2017-12-15T11:36:41.526Z,6.40
2017-12-15T11:39:09.936Z,6.60
2017-12-15T11:41:37.503Z,6.60
2017-12-15T11:44:05.192Z,7.10
2017-12-15T11:46:32.760Z,7.10
2017-12-15T11:49:00.317Z,6.80
2017-12-15T11:51:29.444Z,6.70
2017-12-15T11:53:57.015Z,6.70
2017-12-15T11:56:24.601Z,6.60
2017-12-15T11:58:52.147Z,6.50
2017-12-15T12:01:19.727Z,6.50
2017-12-15T12:03:47.360Z,6.50
2017-12-15T12:06:15.021Z,6.60
2017-12-15T12:08:42.587Z,6.70
2017-12-15T12:11:10.144Z,6.70
2017-12-15T12:13:37.735Z,6.70
2017-12-15T12:16:05.278Z,6.70
2017-12-15T12:18:32.838Z,6.70
2017-12-15T12:21:00.473Z,6.60
2017-12-15T12:23:28.243Z,6.70
2017-12-15T12:25:55.843Z,6.60
2017-12-15T12:28:23.458Z,6.70
2017-12-15T12:30:51.035Z,6.80
2017-12-15T12:33:18.605Z,6.70
2017-12-15T12:35:46.202Z,6.70
2017-12-15T12:38:14.542Z,6.50
2017-12-15T12:40:42.139Z,6.50
2017-12-15T12:43:10.478Z,6.40
2017-12-15T12:45:38.058Z,6.40
2017-12-15T12:48:05.643Z,6.30
2017-12-15T12:50:33.498Z,6.10
2017-12-15T12:53:01.821Z,5.90
2017-12-15T12:55:29.479Z,5.90
2017-12-15T12:57:57.036Z,5.90
2017-12-15T13:00:24.598Z,5.80
2017-12-15T13:02:52.228Z,5.70
2017-12-15T13:05:19.854Z,5.70
2017-12-15T13:07:47.450Z,5.80
2017-12-15T13:10:15.103Z,5.70
2017-12-15T13:12:42.797Z,5.70
2017-12-15T13:15:10.439Z,5.80
2017-12-15T13:17:37.990Z,5.90
2017-12-15T13:20:05.764Z,5.90
2017-12-15T13:22:33.359Z,6.10
2017-12-15T13:25:00.919Z,6.20
2017-12-15T13:27:28.537Z,6.30
2017-12-15T13:29:56.096Z,6.30
2017-12-15T13:32:23.697Z,6.50
2017-12-15T13:34:51.328Z,6.70
2017-12-15T13:37:18.977Z,6.70
2017-12-15T13:39:46.567Z,6.80
2017-12-15T13:42:14.131Z,6.80
2017-12-15T13:44:41.727Z,6.70
2017-12-15T13:47:10.051Z,6.80
2017-12-15T13:49:37.619Z,6.80
2017-12-15T13:52:05.187Z,7.20
2017-12-15T13:54:32.768Z,7.90
2017-12-15T13:57:01.385Z,7.40
2017-12-15T13:59:28.936Z,7.40
2017-12-15T14:01:56.496Z,7.30
2017-12-15T14:04:24.203Z,6.60
2017-12-15T14:06:51.773Z,5.50
2017-12-15T14:09:19.363Z,5.60
2017-12-15T14:11:46.919Z,5.20
2017-12-15T14:14:14.515Z,5.00
2017-12-15T14:16:42.159Z,4.80
2017-12-15T14:19:09.712Z,4.90
2017-12-15T14:21:37.342Z,4.80
2017-12-15T14:24:05.751Z,4.70
2017-12-15T14:26:33.387Z,4.70
2017-12-15T14:29:01.851Z,4.70
2017-12-15T14:31:29.504Z,4.70
2017-12-15T14:33:57.063Z,4.70
2017-12-15T14:36:24.719Z,4.70
2017-12-15T14:38:53.120Z,5.10
2017-12-15T14:41:21.534Z,5.10
2017-12-15T14:43:49.135Z,5.00
2017-12-15T14:46:16.728Z,5.20
2017-12-15T14:48:51.761Z,5.00
2017-12-15T14:51:11.903Z,4.90
2017-12-15T14:53:39.487Z,4.80
2017-12-15T14:56:07.843Z,5.10
2017-12-15T14:58:35.431Z,5.00
2017-12-15T15:01:03.787Z,5.10
2017-12-15T15:03:31.398Z,5.10
2017-12-15T15:05:58.996Z,5.20
2017-12-15T15:08:26.548Z,5.20
2017-12-15T15:10:54.143Z,5.10
2017-12-15T15:13:22.654Z,5.20
2017-12-15T15:15:50.251Z,5.10
2017-12-15T15:18:17.858Z,5.20
2017-12-15T15:20:45.408Z,5.30
2017-12-15T15:23:12.990Z,5.10
2017-12-15T15:25:40.575Z,5.10
2017-12-15T15:28:08.217Z,5.00
2017-12-15T15:30:35.776Z,4.90
2017-12-15T15:33:03.403Z,4.80
2017-12-15T15:35:31.823Z,4.90
2017-12-15T15:37:59.390Z,4.90
2017-12-15T15:40:27.067Z,4.80
2017-12-15T15:42:54.627Z,4.70
2017-12-15T15:45:22.219Z,4.70
2017-12-15T15:47:49.796Z,4.60
2017-12-15T15:50:17.387Z,4.60
2017-12-15T15:52:45.006Z,4.60
2017-12-15T15:55:12.622Z,4.60
2017-12-15T15:57:40.216Z,4.50
2017-12-15T16:00:08.001Z,4.40
2017-12-15T16:02:35.600Z,4.30
2017-12-15T16:05:03.219Z,4.20
2017-12-15T16:07:30.810Z,4.20
2017-12-15T16:09:58.406Z,4.20
2017-12-15T16:12:26.747Z,4.20
2017-12-15T16:14:54.396Z,4.20
2017-12-15T16:17:22.035Z,4.20
2017-12-15T16:19:49.631Z,4.20
2017-12-15T16:22:17.189Z,4.20
2017-12-15T16:24:44.764Z,4.20
2017-12-15T16:27:12.336Z,4.20
2017-12-15T16:29:40.661Z,4.20
2017-12-15T16:32:08.264Z,4.20
2017-12-15T16:34:36.616Z,4.20
2017-12-15T16:37:04.187Z,4.20
2017-12-15T16:39:31.783Z,4.10
2017-12-15T16:42:00.166Z,3.70
2017-12-15T16:44:27.776Z,3.60
2017-12-15T16:46:55.396Z,3.60
2017-12-15T16:49:22.955Z,3.70
2017-12-15T16:51:50.560Z,3.80
2017-12-15T16:54:18.127Z,3.70
2017-12-15T16:56:46.502Z,3.60
2017-12-15T16:59:14.848Z,3.80
2017-12-15T17:01:42.407Z,3.70
2017-12-15T17:04:10.006Z,3.80
2017-12-15T17:06:38.377Z,3.80
2017-12-15T17:09:06.743Z,3.90
2017-12-15T17:11:34.343Z,3.80
2017-12-15T17:14:01.915Z,3.80
2017-12-15T17:16:29.544Z,3.40
2017-12-15T17:18:57.894Z,3.10
2017-12-15T17:21:25.492Z,3.00
2017-12-15T17:23:53.069Z,3.00
2017-12-15T17:26:20.626Z,3.00
2017-12-15T17:28:48.288Z,3.00
2017-12-15T17:31:15.899Z,3.10
2017-12-15T17:33:43.543Z,3.30
2017-12-15T17:36:11.107Z,3.30
2017-12-15T17:38:38.726Z,3.30
2017-12-15T17:41:06.315Z,3.30
2017-12-15T17:43:33.895Z,3.40
2017-12-15T17:46:03.083Z,3.50
2017-12-15T17:48:30.699Z,3.40
2017-12-15T17:50:58.311Z,3.20
2017-12-15T17:53:25.876Z,3.20
2017-12-15T17:55:54.244Z,3.20
2017-12-15T17:58:21.808Z,3.20
2017-12-15T18:00:49.425Z,3.30
2017-12-15T18:03:16.986Z,3.20
2017-12-15T18:05:44.632Z,3.30
2017-12-15T18:08:12.295Z,3.70
2017-12-15T18:10:39.854Z,3.90
2017-12-15T18:13:07.513Z,3.90
2017-12-15T18:15:35.104Z,3.90
2017-12-15T18:18:02.736Z,3.80
2017-12-15T18:20:30.296Z,3.70
2017-12-15T18:22:57.866Z,3.70
2017-12-15T18:25:25.470Z,3.60
2017-12-15T18:27:53.885Z,3.50
2017-12-15T18:30:21.502Z,3.50
2017-12-15T18:32:49.922Z,3.40
2017-12-15T18:35:17.560Z,3.40
2017-12-15T18:37:45.236Z,3.40
2017-12-15T18:40:12.810Z,3.40
2017-12-15T18:42:40.407Z,3.30
2017-12-15T18:45:07.974Z,3.30
2017-12-15T18:47:35.566Z,3.30
2017-12-15T18:50:03.146Z,3.30
2017-12-15T18:52:30.711Z,3.30
2017-12-15T18:54:58.299Z,3.30
2017-12-15T18:57:25.939Z,3.30
2017-12-15T18:59:53.531Z,3.30
2017-12-15T19:02:21.856Z,3.30
2017-12-15T19:04:49.490Z,3.20
2017-12-15T19:07:17.194Z,3.30
2017-12-15T19:09:44.808Z,3.20
2017-12-15T19:12:13.128Z,3.30
2017-12-15T19:14:40.727Z,3.30
2017-12-15T19:17:09.055Z,3.20
2017-12-15T19:19:36.625Z,3.20
2017-12-15T19:22:04.314Z,3.20
2017-12-15T19:24:31.927Z,3.20
2017-12-15T19:26:59.515Z,3.20
2017-12-15T19:29:27.094Z,3.10
2017-12-15T19:31:54.688Z,3.10
2017-12-15T19:34:22.424Z,3.10
2017-12-15T19:36:50.793Z,3.10
2017-12-15T19:39:18.359Z,3.10
2017-12-15T19:41:46.739Z,3.20
2017-12-15T19:44:15.152Z,3.00
2017-12-15T19:46:42.715Z,3.00
2017-12-15T19:49:10.303Z,2.90
2017-12-15T19:51:37.883Z,2.90
2017-12-15T19:54:05.471Z,3.10
2017-12-15T19:56:33.059Z,3.30
2017-12-15T19:59:00.634Z,3.30
2017-12-15T20:01:28.246Z,3.40
2017-12-15T20:03:55.806Z,3.50
2017-12-15T20:06:23.586Z,3.50
2017-12-15T20:08:51.246Z,3.50
2017-12-15T20:11:18.819Z,3.50
2017-12-15T20:13:46.420Z,3.50
2017-12-15T20:16:14.755Z,3.50
2017-12-15T20:18:42.356Z,3.50
2017-12-15T20:21:09.920Z,3.50
2017-12-15T20:23:38.343Z,3.40
2017-12-15T20:26:05.948Z,3.40
2017-12-15T20:28:34.336Z,3.40
2017-12-15T20:31:02.709Z,3.30
2017-12-15T20:33:31.133Z,3.10
2017-12-15T20:35:58.826Z,3.10
2017-12-15T20:38:26.405Z,3.10
2017-12-15T20:40:54.224Z,3.20
2017-12-15T20:43:21.883Z,3.20
2017-12-15T20:45:49.536Z,3.20
2017-12-15T20:48:17.152Z,3.10
2017-12-15T20:50:45.553Z,3.00
2017-12-15T20:53:13.184Z,3.00
2017-12-15T20:55:40.803Z,3.00
2017-12-15T20:58:08.362Z,3.00
2017-12-15T21:00:35.970Z,2.90
2017-12-15T21:03:04.388Z,3.00
2017-12-15T21:05:32.008Z,2.90
2017-12-15T21:08:00.340Z,2.90
2017-12-15T21:10:27.939Z,2.90
2017-12-15T21:12:57.611Z,2.90
2017-12-15T21:15:25.193Z,2.90
2017-12-15T21:17:52.823Z,2.90
2017-12-15T21:20:20.630Z,3.00
2017-12-15T21:22:48.333Z,3.00
2017-12-15T21:25:15.893Z,3.00
2017-12-15T21:27:43.593Z,2.90
2017-12-15T21:30:12.972Z,2.90
2017-12-15T21:32:40.591Z,2.90
2017-12-15T21:35:08.378Z,2.80
2017-12-15T21:37:35.968Z,2.80
2017-12-15T21:40:03.532Z,2.80
2017-12-15T21:42:31.132Z,2.80
2017-12-15T21:44:58.708Z,2.70
2017-12-15T21:47:26.308Z,2.80
2017-12-15T21:49:53.885Z,2.80
2017-12-15T21:52:21.456Z,2.80
2017-12-15T21:54:49.855Z,2.80
2017-12-15T21:57:18.164Z,2.80
2017-12-15T21:59:45.760Z,2.80
2017-12-15T22:02:14.097Z,2.90
2017-12-15T22:04:41.667Z,2.90
2017-12-15T22:07:09.297Z,2.90
2017-12-15T22:09:36.963Z,2.90
2017-12-15T22:12:04.751Z,2.90
2017-12-15T22:14:32.436Z,3.00
2017-12-15T22:17:01.169Z,2.90
2017-12-15T22:19:28.767Z,3.00
2017-12-15T22:21:56.366Z,3.00
2017-12-15T22:24:24.059Z,2.90
2017-12-15T22:26:51.759Z,3.00
2017-12-15T22:29:21.332Z,3.10
2017-12-15T22:31:48.952Z,3.10
2017-12-15T22:34:16.536Z,3.30
2017-12-15T22:36:44.126Z,3.30
2017-12-15T22:39:11.702Z,3.30
2017-12-15T22:41:40.126Z,3.30
2017-12-15T22:44:07.760Z,3.20
2017-12-15T22:46:35.332Z,3.30
2017-12-15T22:49:02.942Z,3.20
2017-12-15T22:51:30.551Z,3.20
2017-12-15T22:53:58.154Z,3.20
2017-12-15T22:56:25.723Z,3.20
2017-12-15T22:58:53.340Z,3.20
2017-12-15T23:01:21.011Z,3.20
2017-12-15T23:03:48.574Z,3.10
2017-12-15T23:06:16.221Z,3.10
2017-12-15T23:08:43.799Z,3.00
2017-12-15T23:11:11.351Z,3.00
2017-12-15T23:13:38.951Z,3.00
2017-12-15T23:16:06.511Z,2.90
2017-12-15T23:18:34.939Z,2.90
2017-12-15T23:21:02.524Z,2.90
2017-12-15T23:23:30.119Z,2.90
2017-12-15T23:25:58.724Z,2.90
2017-12-15T23:28:26.299Z,2.90
2017-12-15T23:30:53.900Z,2.90
2017-12-15T23:33:21.490Z,2.90
2017-12-15T23:35:49.171Z,2.90
2017-12-15T23:38:16.798Z,2.90
2017-12-15T23:40:45.211Z,2.90
2017-12-15T23:43:12.880Z,2.90
2017-12-15T23:45:40.442Z,3.00
2017-12-15T23:48:07.998Z,2.90
2017-12-15T23:50:35.596Z,3.00
2017-12-15T23:53:03.159Z,2.90
2017-12-15T23:55:42.603Z,3.00
2017-12-15T23:58:10.951Z,2.90
